Augsburg, Illinois
Current Conditions -  °F | °C
As of 9:15 AM on Saturday 20 Dec 2014 (Local Time) from KSLO Reporting Station
Haze Haze  
Wind Chill: 34°   Ceiling: 5000
Heat Index: 34°   Visibility: 5mi
Dew Point: 29°   Wind: 3mph
Humidity: 83%   Direction: 130°SE
Pressure: 30.31"   Gusts: NA
Location:  38.8463°N, 89.0894°W
Report Text: KSLO 201515Z AUTO 13003KT 5SM HZ BKN050 OVC060 01/M01 A3031 RMK AO2 T00111015
Loading
Personal Weather Stations






























Interactive Weather Map New forecast layout! Learn more

10-Day Weather Forecast

Advertisements
Track Severe Weather on mobile